createdAt,value
2019-05-05T00:01:57.013Z,99.90
2019-05-05T00:04:56.469Z,99.90
2019-05-05T00:07:36.819Z,99.90
2019-05-05T00:16:47.263Z,99.90
2019-05-05T00:19:35.847Z,99.90
2019-05-05T00:22:25.016Z,99.90
2019-05-05T00:24:54.628Z,99.90
2019-05-05T00:27:45.252Z,99.90
2019-05-05T00:30:34.306Z,99.90
2019-05-05T00:33:24.464Z,99.90
2019-05-05T00:36:14.369Z,99.90
2019-05-05T00:39:04.319Z,99.90
2019-05-05T00:41:52.776Z,99.90
2019-05-05T00:44:40.747Z,99.90
2019-05-05T00:50:37.960Z,99.90
2019-05-05T00:53:18.522Z,99.90
2019-05-05T00:55:58.944Z,99.90
2019-05-05T00:58:44.646Z,99.90
2019-05-05T01:01:44.885Z,99.90
2019-05-05T01:04:32.469Z,99.90
2019-05-05T01:07:14.297Z,99.90
2019-05-05T01:09:55.156Z,99.90
2019-05-05T01:12:36.632Z,99.90
2019-05-05T01:15:17.181Z,99.90
2019-05-05T01:17:57.752Z,99.90
2019-05-05T01:20:38.505Z,99.90
2019-05-05T01:23:19.443Z,99.90
2019-05-05T01:25:59.907Z,99.90
2019-05-05T01:28:40.615Z,99.90
2019-05-05T01:31:21.603Z,99.90
2019-05-05T01:34:21.441Z,99.90
2019-05-05T01:40:24.746Z,99.90
2019-05-05T01:43:05.938Z,99.90
2019-05-05T01:45:46.292Z,99.90
2019-05-05T01:48:27.033Z,99.90
2019-05-05T01:51:07.924Z,99.90
2019-05-05T01:53:48.874Z,99.90
2019-05-05T01:56:29.552Z,99.90
2019-05-05T01:59:10.607Z,99.90
2019-05-05T02:01:51.076Z,99.90
2019-05-05T02:04:31.824Z,99.90
2019-05-05T02:07:14.216Z,99.90
2019-05-05T02:09:55.438Z,99.90
2019-05-05T02:12:36.018Z,99.90
2019-05-05T02:15:16.784Z,99.90
2019-05-05T02:17:57.270Z,99.90
2019-05-05T02:20:38.023Z,99.90
2019-05-05T02:23:18.837Z,99.90
2019-05-05T02:25:48.052Z,99.90
2019-05-05T02:28:16.948Z,99.90
2019-05-05T02:37:05.691Z,99.90
2019-05-05T02:39:39.342Z,99.90
2019-05-05T02:42:26.681Z,99.90
2019-05-05T02:48:35.525Z,99.90
2019-05-05T02:51:25.905Z,99.90
2019-05-05T02:54:35.627Z,99.90
2019-05-05T02:57:24.054Z,99.90
2019-05-05T03:00:04.569Z,99.90
2019-05-05T03:02:35.436Z,99.90
2019-05-05T03:05:04.620Z,99.90
2019-05-05T03:07:45.741Z,99.90
2019-05-05T03:10:29.657Z,99.90
2019-05-05T03:13:10.360Z,99.90
2019-05-05T03:15:51.314Z,99.90
2019-05-05T03:18:33.739Z,99.90
2019-05-05T03:21:14.605Z,99.90
2019-05-05T03:23:55.417Z,99.90
2019-05-05T03:26:36.184Z,99.90
2019-05-05T03:29:19.830Z,99.90
2019-05-05T03:32:01.034Z,99.90
2019-05-05T03:37:57.725Z,99.90
2019-05-05T03:44:15.017Z,99.90
2019-05-05T03:47:03.551Z,99.90
2019-05-05T03:49:53.557Z,99.90
2019-05-05T03:52:43.830Z,99.90
2019-05-05T03:55:34.451Z,99.90
2019-05-05T03:58:24.076Z,99.90
2019-05-05T04:01:34.482Z,99.90
2019-05-05T04:04:24.499Z,99.90
2019-05-05T04:07:05.752Z,99.90
2019-05-05T04:09:47.143Z,99.90
2019-05-05T04:12:28.413Z,99.90
2019-05-05T04:14:57.375Z,99.90
2019-05-05T04:18:04.515Z,99.90
2019-05-05T04:20:53.442Z,99.90
2019-05-05T04:23:44.054Z,99.90
2019-05-05T04:26:33.513Z,99.90
2019-05-05T04:29:21.972Z,99.90
2019-05-05T04:32:10.047Z,99.90
2019-05-05T04:34:58.570Z,99.90
2019-05-05T04:37:46.832Z,99.90
2019-05-05T04:40:35.047Z,99.90
2019-05-05T04:43:24.642Z,99.90
2019-05-05T04:49:41.162Z,99.90
2019-05-05T04:55:38.309Z,99.90
2019-05-05T04:58:26.336Z,99.90
2019-05-05T05:01:14.325Z,99.90
2019-05-05T05:04:21.392Z,99.90
2019-05-05T05:07:02.082Z,99.90
2019-05-05T05:09:43.520Z,99.90
2019-05-05T05:12:24.726Z,99.90
2019-05-05T05:15:05.409Z,99.90
2019-05-05T05:17:53.519Z,99.90
2019-05-05T05:20:34.920Z,99.90
2019-05-05T05:23:16.009Z,99.90
2019-05-05T05:25:57.314Z,99.90
2019-05-05T05:28:38.053Z,99.90
2019-05-05T05:31:18.889Z,99.90
2019-05-05T05:34:00.002Z,99.90
2019-05-05T05:36:40.933Z,99.90
2019-05-05T05:42:24.152Z,99.90
2019-05-05T05:45:24.377Z,99.90
2019-05-05T05:51:24.438Z,99.90
2019-05-05T05:54:16.773Z,99.90
2019-05-05T05:57:00.001Z,99.90
2019-05-05T05:59:29.041Z,99.90
2019-05-05T06:05:04.701Z,99.90
2019-05-05T06:07:45.307Z,99.90
2019-05-05T06:10:27.385Z,99.90
2019-05-05T06:13:08.767Z,99.90
2019-05-05T06:15:49.400Z,99.90
2019-05-05T06:18:30.490Z,99.90
2019-05-05T06:21:13.586Z,99.90
2019-05-05T06:23:53.900Z,99.90
2019-05-05T06:26:34.570Z,99.90
2019-05-05T06:29:15.406Z,99.90
2019-05-05T06:31:58.710Z,99.90
2019-05-05T06:34:39.878Z,99.90
2019-05-05T06:37:20.816Z,99.90
2019-05-05T06:40:03.799Z,99.90
2019-05-05T06:43:06.717Z,99.90
2019-05-05T06:45:53.441Z,99.90
2019-05-05T06:48:34.423Z,99.90
2019-05-05T06:51:15.589Z,99.90
2019-05-05T06:53:56.123Z,99.90
2019-05-05T06:56:36.792Z,99.90
2019-05-05T06:59:17.572Z,99.90
2019-05-05T07:01:58.709Z,99.90
2019-05-05T07:04:39.038Z,99.90
2019-05-05T07:07:19.708Z,99.90
2019-05-05T07:10:00.546Z,99.90
2019-05-05T07:12:43.821Z,99.90
2019-05-05T07:15:24.022Z,99.90
2019-05-05T07:18:04.407Z,99.90
2019-05-05T07:20:45.178Z,99.90
2019-05-05T07:23:25.607Z,99.40
2019-05-05T07:26:07.119Z,98.00
2019-05-05T07:28:47.604Z,96.50
2019-05-05T07:31:28.175Z,91.10
2019-05-05T07:34:09.797Z,90.90
2019-05-05T07:36:51.322Z,91.30
2019-05-05T07:39:34.001Z,88.60
2019-05-05T07:42:14.828Z,87.90
2019-05-05T07:44:55.866Z,84.20
2019-05-05T07:47:37.129Z,83.60
2019-05-05T07:50:06.573Z,86.50
2019-05-05T07:52:36.403Z,91.70
2019-05-05T07:55:24.704Z,93.70
2019-05-05T07:58:13.889Z,96.30
2019-05-05T08:01:04.506Z,93.20
2019-05-05T08:03:53.842Z,89.80
2019-05-05T08:06:35.485Z,81.90
2019-05-05T08:09:16.032Z,75.50
2019-05-05T08:11:56.631Z,88.10
2019-05-05T08:14:37.567Z,77.00
2019-05-05T08:17:39.036Z,78.10
2019-05-05T08:20:30.118Z,77.50
2019-05-05T08:26:11.343Z,76.10
2019-05-05T08:28:56.973Z,84.90
2019-05-05T08:31:56.364Z,90.40
2019-05-05T08:34:36.900Z,94.90
2019-05-05T08:37:17.577Z,96.40
2019-05-05T08:39:58.637Z,91.30
2019-05-05T08:42:39.157Z,90.50
2019-05-05T08:45:19.757Z,90.90
2019-05-05T08:48:00.342Z,90.70
2019-05-05T08:50:41.264Z,91.00
2019-05-05T08:53:21.772Z,92.60
2019-05-05T08:56:05.757Z,90.30
2019-05-05T08:58:49.760Z,93.20
2019-05-05T09:04:14.154Z,91.70
2019-05-05T09:06:55.048Z,92.30
2019-05-05T09:09:36.724Z,93.50
2019-05-05T09:12:18.044Z,97.50
2019-05-05T09:14:58.919Z,95.70
2019-05-05T09:17:39.701Z,95.70
2019-05-05T09:20:20.572Z,90.70
2019-05-05T09:23:01.322Z,90.80
2019-05-05T09:26:01.223Z,90.20
2019-05-05T09:28:54.580Z,85.30
2019-05-05T09:31:23.948Z,77.30
2019-05-05T09:34:14.640Z,90.10
2019-05-05T09:37:24.662Z,83.90
2019-05-05T09:40:13.970Z,86.60
2019-05-05T09:42:44.300Z,90.10
2019-05-05T09:45:33.698Z,83.40
2019-05-05T09:48:24.274Z,81.90
2019-05-05T09:51:13.655Z,82.90
2019-05-05T09:54:11.902Z,72.70
2019-05-05T09:56:53.778Z,80.80
2019-05-05T09:59:44.079Z,75.80
2019-05-05T10:02:32.137Z,73.00
2019-05-05T10:05:20.329Z,76.00
2019-05-05T10:08:00.906Z,83.60
2019-05-05T10:10:44.075Z,76.10
2019-05-05T10:13:24.345Z,78.30
2019-05-05T10:16:04.811Z,80.50
2019-05-05T10:18:45.738Z,74.80
2019-05-05T10:21:26.216Z,80.80
2019-05-05T10:27:14.710Z,77.50
2019-05-05T10:29:55.709Z,90.40
2019-05-05T10:32:36.640Z,90.80
2019-05-05T10:35:17.268Z,87.40
2019-05-05T10:37:58.765Z,75.50
2019-05-05T10:40:41.162Z,75.10
2019-05-05T10:43:23.698Z,81.10
2019-05-05T10:46:14.234Z,83.80
2019-05-05T10:48:54.582Z,87.10
2019-05-05T10:51:35.305Z,93.50
2019-05-05T10:54:16.404Z,93.90
2019-05-05T10:56:57.413Z,91.50
2019-05-05T10:59:38.494Z,96.30
2019-05-05T11:02:19.153Z,81.30
2019-05-05T11:04:48.276Z,90.80
2019-05-05T11:07:29.284Z,92.00
2019-05-05T11:10:10.512Z,89.00
2019-05-05T11:12:51.225Z,89.10
2019-05-05T11:15:33.556Z,93.00
2019-05-05T11:18:15.208Z,91.20
2019-05-05T11:20:55.745Z,91.90
2019-05-05T11:23:36.833Z,92.30
2019-05-05T11:26:17.263Z,91.90
2019-05-05T11:28:58.058Z,88.50
2019-05-05T11:31:39.107Z,86.50
2019-05-05T11:34:24.635Z,86.00
2019-05-05T11:37:10.946Z,84.10
2019-05-05T11:39:51.401Z,83.60
2019-05-05T11:42:34.991Z,92.00
2019-05-05T11:45:16.261Z,93.00
2019-05-05T11:47:57.144Z,94.50
2019-05-05T11:50:38.040Z,96.20
2019-05-05T11:53:19.043Z,97.10
2019-05-05T11:56:04.413Z,96.60
2019-05-05T11:58:45.211Z,97.60
2019-05-05T12:01:28.924Z,98.40
2019-05-05T12:04:14.536Z,98.00
2019-05-05T12:06:55.379Z,97.50
2019-05-05T12:12:44.241Z,94.20
2019-05-05T12:15:25.552Z,97.10
2019-05-05T12:18:06.664Z,96.00
2019-05-05T12:20:47.068Z,92.20
2019-05-05T12:23:27.897Z,88.20
2019-05-05T12:26:30.330Z,84.30
2019-05-05T12:29:14.744Z,91.00
2019-05-05T12:31:46.446Z,93.50
2019-05-05T12:34:34.684Z,94.30
2019-05-05T12:37:23.661Z,91.50
2019-05-05T12:40:14.303Z,91.60
2019-05-05T12:43:03.683Z,90.20
2019-05-05T12:54:56.321Z,94.60
2019-05-05T12:57:44.329Z,91.30
2019-05-05T13:03:27.883Z,96.10
2019-05-05T13:06:15.881Z,95.00
2019-05-05T13:08:56.206Z,97.10
2019-05-05T13:11:37.193Z,97.30
2019-05-05T13:14:17.769Z,95.50
2019-05-05T13:16:58.522Z,99.30
2019-05-05T13:22:58.707Z,98.00
2019-05-05T13:28:31.834Z,92.10
2019-05-05T13:34:09.754Z,91.30
2019-05-05T13:36:57.854Z,92.10
2019-05-05T13:42:39.682Z,95.70
2019-05-05T13:45:46.922Z,97.70
2019-05-05T13:48:34.986Z,93.60
2019-05-05T13:51:24.025Z,91.00
2019-05-05T13:54:13.637Z,95.70
2019-05-05T13:57:03.844Z,91.30
2019-05-05T13:59:54.428Z,88.70
2019-05-05T14:02:43.951Z,91.90
2019-05-05T14:05:34.244Z,90.60
2019-05-05T14:08:15.240Z,90.90
2019-05-05T14:10:56.194Z,90.60
2019-05-05T14:13:36.973Z,87.10
2019-05-05T14:16:17.769Z,90.30
2019-05-05T14:18:58.834Z,85.90
2019-05-05T14:21:39.740Z,85.20
2019-05-05T14:27:33.325Z,80.50
2019-05-05T14:33:35.283Z,83.50
2019-05-05T14:36:36.056Z,90.00
2019-05-05T14:39:17.566Z,91.70
2019-05-05T14:41:57.918Z,95.70
2019-05-05T14:44:38.988Z,92.50
2019-05-05T14:47:19.721Z,89.30
2019-05-05T14:50:00.458Z,91.00
2019-05-05T14:52:44.099Z,88.80
2019-05-05T14:55:25.633Z,90.00
2019-05-05T14:58:06.796Z,89.00
2019-05-05T15:00:47.939Z,88.10
2019-05-05T15:03:28.657Z,90.00
2019-05-05T15:06:28.727Z,90.40
2019-05-05T15:09:28.870Z,88.60
2019-05-05T15:12:29.257Z,91.50
2019-05-05T15:15:09.881Z,97.90
2019-05-05T15:17:50.343Z,93.80
2019-05-05T15:20:31.138Z,85.70
2019-05-05T15:23:13.449Z,90.00
2019-05-05T15:25:54.400Z,91.90
2019-05-05T15:28:35.115Z,85.80
2019-05-05T15:31:17.829Z,84.30
2019-05-05T15:33:58.252Z,81.00
2019-05-05T15:36:39.108Z,84.20
2019-05-05T15:39:19.993Z,78.60
2019-05-05T15:42:01.044Z,93.70
2019-05-05T15:44:41.448Z,97.10
2019-05-05T15:47:23.632Z,99.90
2019-05-05T15:50:05.204Z,98.50
2019-05-05T15:52:46.501Z,99.90
2019-05-05T15:55:28.999Z,99.90
2019-05-05T15:58:09.703Z,92.50
2019-05-05T16:00:50.361Z,98.90
2019-05-05T16:03:32.698Z,92.10
2019-05-05T16:06:14.251Z,84.80
2019-05-05T16:08:56.666Z,82.20
2019-05-05T16:11:37.080Z,85.90
2019-05-05T16:14:18.022Z,85.10
2019-05-05T16:20:01.466Z,84.50
2019-05-05T16:23:01.246Z,84.10
2019-05-05T16:25:41.813Z,89.70
2019-05-05T16:28:24.977Z,95.90
2019-05-05T16:31:05.479Z,95.50
2019-05-05T16:33:48.672Z,97.60
2019-05-05T16:36:28.913Z,99.90
2019-05-05T16:39:09.637Z,99.90
2019-05-05T16:41:50.346Z,99.90
2019-05-05T16:44:31.717Z,99.90
2019-05-05T16:47:13.911Z,99.90
2019-05-05T16:49:55.182Z,99.90
2019-05-05T16:52:40.395Z,99.90
2019-05-05T16:55:27.368Z,99.90
2019-05-05T16:58:14.005Z,99.90
2019-05-05T17:00:54.812Z,99.90
2019-05-05T17:03:35.871Z,99.90
2019-05-05T17:06:17.044Z,99.90
2019-05-05T17:08:57.681Z,99.90
2019-05-05T17:11:39.378Z,99.90
2019-05-05T17:17:34.215Z,99.90
2019-05-05T17:20:17.185Z,99.90
2019-05-05T17:23:01.725Z,99.90
2019-05-05T17:25:43.890Z,99.90
2019-05-05T17:28:24.682Z,99.90
2019-05-05T17:31:05.608Z,99.90
2019-05-05T17:33:46.327Z,99.90
2019-05-05T17:36:27.200Z,99.90
2019-05-05T17:39:08.649Z,99.90
2019-05-05T17:42:08.181Z,99.90
2019-05-05T17:45:01.149Z,99.90
2019-05-05T17:48:04.545Z,99.90
2019-05-05T17:53:55.906Z,99.90
2019-05-05T17:56:37.304Z,99.90
2019-05-05T17:59:18.664Z,99.90
2019-05-05T18:01:59.662Z,99.90
2019-05-05T18:04:40.953Z,99.90
2019-05-05T18:10:40.044Z,99.90
2019-05-05T18:13:35.144Z,99.90
2019-05-05T18:16:17.035Z,99.90
2019-05-05T18:18:57.759Z,99.90
2019-05-05T18:21:38.244Z,99.90
2019-05-05T18:24:18.941Z,99.90
2019-05-05T18:26:59.564Z,99.90
2019-05-05T18:29:40.192Z,99.90
2019-05-05T18:32:20.677Z,99.90
2019-05-05T18:35:04.481Z,99.90
2019-05-05T18:37:44.176Z,99.90
2019-05-05T18:40:25.005Z,99.90
2019-05-05T18:43:10.296Z,99.90
2019-05-05T18:46:01.401Z,99.90
2019-05-05T18:48:41.993Z,99.90
2019-05-05T18:54:11.679Z,99.90
2019-05-05T18:56:53.520Z,99.90
2019-05-05T18:59:34.070Z,99.90
2019-05-05T19:02:34.721Z,99.90
2019-05-05T19:05:34.936Z,99.90
2019-05-05T19:08:19.024Z,99.90
2019-05-05T19:11:00.255Z,99.90
2019-05-05T19:13:41.483Z,99.90
2019-05-05T19:16:23.754Z,99.90
2019-05-05T19:19:05.084Z,99.90
2019-05-05T19:21:50.447Z,99.90
2019-05-05T19:24:35.138Z,99.90
2019-05-05T19:27:15.835Z,99.90
2019-05-05T19:29:56.237Z,99.90
2019-05-05T19:32:36.959Z,99.90
2019-05-05T19:35:06.165Z,99.90
2019-05-05T19:37:54.295Z,99.90
2019-05-05T19:40:42.590Z,99.90
2019-05-05T19:47:24.682Z,99.90
2019-05-05T19:50:37.111Z,99.90
2019-05-05T19:53:26.189Z,99.90
2019-05-05T19:56:14.369Z,99.90
2019-05-05T19:59:04.375Z,99.90
2019-05-05T20:04:48.159Z,99.90
2019-05-05T20:07:28.628Z,99.90
2019-05-05T20:10:09.320Z,99.90
2019-05-05T20:12:50.208Z,99.90
2019-05-05T20:15:36.546Z,99.90
2019-05-05T20:18:17.164Z,99.90
2019-05-05T20:21:03.958Z,99.90
2019-05-05T20:23:40.918Z,99.90
2019-05-05T20:26:23.836Z,99.90
2019-05-05T20:29:14.043Z,99.90
2019-05-05T20:31:47.212Z,99.90
2019-05-05T20:37:50.316Z,99.90
2019-05-05T20:40:34.971Z,99.90
2019-05-05T20:43:16.268Z,99.90
2019-05-05T20:45:56.721Z,99.90
2019-05-05T20:48:37.391Z,99.90
2019-05-05T20:51:18.113Z,99.90
2019-05-05T20:53:59.001Z,99.90
2019-05-05T20:56:39.765Z,99.90
2019-05-05T20:59:29.971Z,99.90
2019-05-05T21:02:04.503Z,99.90
2019-05-05T21:04:45.945Z,99.90
2019-05-05T21:07:26.629Z,99.90
2019-05-05T21:10:07.419Z,99.90
2019-05-05T21:12:48.144Z,99.90
2019-05-05T21:15:28.724Z,99.90
2019-05-05T21:18:09.082Z,99.90
2019-05-05T21:20:49.640Z,99.90
2019-05-05T21:23:49.040Z,99.90
2019-05-05T21:26:49.257Z,99.90
2019-05-05T21:29:39.647Z,99.90
2019-05-05T21:32:13.870Z,99.90
2019-05-05T21:34:54.340Z,99.90
2019-05-05T21:37:34.860Z,99.90
2019-05-05T21:40:16.344Z,99.90
2019-05-05T21:42:56.937Z,99.90
2019-05-05T21:45:37.581Z,99.90
2019-05-05T21:48:18.321Z,99.90
2019-05-05T21:51:05.031Z,99.90
2019-05-05T21:54:04.679Z,99.90
2019-05-05T21:57:04.459Z,99.90
2019-05-05T21:59:55.247Z,99.90
2019-05-05T22:02:28.563Z,99.90
2019-05-05T22:05:09.064Z,99.90
2019-05-05T22:07:49.676Z,99.90
2019-05-05T22:10:30.447Z,99.90
2019-05-05T22:13:11.514Z,99.90
2019-05-05T22:15:54.436Z,99.90
2019-05-05T22:18:34.533Z,99.90
2019-05-05T22:24:18.967Z,99.90
2019-05-05T22:26:59.756Z,99.90
2019-05-05T22:29:40.452Z,99.90
2019-05-05T22:32:21.406Z,99.90
2019-05-05T22:35:02.407Z,99.90
2019-05-05T22:37:43.957Z,99.90
2019-05-05T22:40:25.267Z,99.90
2019-05-05T22:43:05.838Z,99.90
2019-05-05T22:45:46.693Z,99.90
2019-05-05T22:48:27.461Z,99.90
2019-05-05T22:51:08.161Z,99.90
2019-05-05T22:53:49.466Z,99.90
2019-05-05T22:56:30.109Z,99.90
2019-05-05T22:59:10.899Z,99.90
2019-05-05T23:01:51.639Z,99.90
2019-05-05T23:04:51.570Z,99.90
2019-05-05T23:07:34.917Z,99.90
2019-05-05T23:10:16.087Z,99.90
2019-05-05T23:12:56.547Z,99.90
2019-05-05T23:15:39.284Z,99.90
2019-05-05T23:18:25.632Z,99.90
2019-05-05T23:21:25.398Z,99.90
2019-05-05T23:24:25.267Z,99.90
2019-05-05T23:27:06.017Z,99.90
2019-05-05T23:29:46.729Z,99.90
2019-05-05T23:32:27.445Z,99.90
2019-05-05T23:35:08.325Z,99.90
2019-05-05T23:37:49.023Z,99.90
2019-05-05T23:40:29.435Z,99.90
2019-05-05T23:43:10.046Z,99.90
2019-05-05T23:45:50.567Z,99.90
2019-05-05T23:48:31.560Z,99.90
2019-05-05T23:51:13.997Z,99.90
2019-05-05T23:53:55.548Z,99.90
2019-05-05T23:56:36.328Z,99.90
2019-05-05T23:59:16.857Z,99.90
